Time,TemperatureF,DewpointF,PressureIn,WindDirection,WindDirectionDegrees,WindSpeedMPH,WindSpeedGustMPH,Humidity,HourlyPrecipIn,Conditions,Clouds,dailyrainin,SoftwareType,DateUTC
2013-01-27 00:03:00,43.9,38.5,30.19,SE,138,10.0,15.0,81,0.00,,,0.00,meteohub,2013-01-27 06:03:00,
2013-01-27 00:08:00,43.9,38.5,30.19,SE,137,9.0,16.0,81,0.00,,,0.00,meteohub,2013-01-27 06:08:00,
2013-01-27 00:13:00,43.9,38.5,30.18,SE,124,11.0,16.0,81,0.00,,,0.00,meteohub,2013-01-27 06:13:00,
2013-01-27 00:18:00,43.9,38.1,30.17,SSE,152,4.0,16.0,80,0.00,,,0.00,meteohub,2013-01-27 06:18:00,
2013-01-27 00:23:00,43.9,38.1,30.17,SE,139,8.0,19.0,80,0.00,,,0.00,meteohub,2013-01-27 06:23:00,
2013-01-27 00:28:00,43.9,38.1,30.16,SE,139,13.0,19.0,80,0.00,,,0.00,meteohub,2013-01-27 06:28:00,
2013-01-27 00:33:00,43.9,38.1,30.15,ESE,115,15.0,19.0,80,0.00,,,0.00,meteohub,2013-01-27 06:33:00,
2013-01-27 00:38:00,43.9,38.1,30.14,SE,139,13.0,19.0,80,0.00,,,0.00,meteohub,2013-01-27 06:38:00,
2013-01-27 00:43:00,43.7,37.9,30.14,SE,136,11.0,19.0,80,0.00,,,0.00,meteohub,2013-01-27 06:43:00,
2013-01-27 00:49:00,43.5,37.8,30.14,SE,130,10.0,22.0,80,0.00,,,0.00,meteohub,2013-01-27 06:49:00,
2013-01-27 00:54:00,43.5,37.8,30.14,SE,134,8.0,22.0,80,0.00,,,0.00,meteohub,2013-01-27 06:54:00,
2013-01-27 00:59:00,43.5,38.1,30.14,SE,145,10.0,22.0,81,0.00,,,0.00,meteohub,2013-01-27 06:59:00,
2013-01-27 01:04:00,43.5,38.1,30.16,South,169,13.0,21.0,81,0.00,,,0.00,meteohub,2013-01-27 07:04:00,
2013-01-27 01:09:00,43.5,38.1,30.17,South,180,12.0,21.0,81,0.00,,,0.00,meteohub,2013-01-27 07:09:00,
2013-01-27 01:14:00,43.5,38.1,30.18,SSW,199,6.0,18.0,81,0.00,,,0.00,meteohub,2013-01-27 07:14:00,
2013-01-27 01:19:00,43.5,38.1,30.17,SSW,197,6.0,16.0,81,0.00,,,0.00,meteohub,2013-01-27 07:19:00,
2013-01-27 01:24:00,43.5,38.1,30.17,SSW,203,6.0,16.0,81,0.00,,,0.00,meteohub,2013-01-27 07:24:00,
2013-01-27 01:29:00,43.3,37.9,30.17,South,186,6.0,16.0,81,0.00,,,0.00,meteohub,2013-01-27 07:29:00,
2013-01-27 01:34:00,43.3,38.3,30.17,SSW,193,5.0,14.0,82,0.00,,,0.00,meteohub,2013-01-27 07:34:00,
2013-01-27 01:39:00,43.3,38.3,30.17,SSW,207,5.0,14.0,82,0.00,,,0.00,meteohub,2013-01-27 07:39:00,
2013-01-27 01:44:00,43.3,38.3,30.17,SE,132,7.0,14.0,82,0.00,,,0.00,meteohub,2013-01-27 07:44:00,
2013-01-27 01:49:00,43.3,38.3,30.17,ESE,121,7.0,14.0,82,0.00,,,0.00,meteohub,2013-01-27 07:49:00,
2013-01-27 01:54:00,43.3,38.3,30.16,South,181,4.0,16.0,82,0.00,,,0.00,meteohub,2013-01-27 07:54:00,
2013-01-27 01:59:00,43.3,38.3,30.16,SSE,155,8.0,17.0,82,0.00,,,0.00,meteohub,2013-01-27 07:59:00,
2013-01-27 02:04:00,43.3,38.5,30.15,ESE,123,11.0,17.0,83,0.00,,,0.00,meteohub,2013-01-27 08:04:00,
2013-01-27 02:09:00,43.2,38.3,30.16,SSE,149,12.0,17.0,83,0.00,,,0.00,meteohub,2013-01-27 08:09:00,
2013-01-27 02:14:00,43.2,38.3,30.16,South,174,7.0,15.0,83,0.00,,,0.00,meteohub,2013-01-27 08:14:00,
2013-01-27 02:19:00,43.2,38.7,30.15,SE,143,7.0,15.0,84,0.00,,,0.00,meteohub,2013-01-27 08:19:00,
2013-01-27 02:24:00,43.2,38.7,30.15,SE,138,6.0,14.0,84,0.00,,,0.00,meteohub,2013-01-27 08:24:00,
2013-01-27 02:29:00,43.2,38.7,30.16,SE,127,12.0,17.0,84,0.00,,,0.00,meteohub,2013-01-27 08:29:00,
2013-01-27 02:34:00,43.2,39.0,30.15,ESE,123,12.0,17.0,85,0.00,,,0.00,meteohub,2013-01-27 08:34:00,
2013-01-27 02:39:00,43.2,39.0,30.15,ESE,117,6.0,15.0,85,0.00,,,0.00,meteohub,2013-01-27 08:39:00,
2013-01-27 02:44:00,43.2,39.0,30.15,SE,136,7.0,14.0,85,0.00,,,0.00,meteohub,2013-01-27 08:44:00,
2013-01-27 02:49:00,43.0,39.0,30.14,SSE,149,7.0,16.0,86,0.00,,,0.00,meteohub,2013-01-27 08:49:00,
2013-01-27 02:54:00,43.0,39.0,30.14,SSW,198,12.0,17.0,86,0.00,,,0.00,meteohub,2013-01-27 08:54:00,
2013-01-27 02:59:00,43.0,39.0,30.14,SSE,149,9.0,17.0,86,0.00,,,0.00,meteohub,2013-01-27 08:59:00,
2013-01-27 03:04:00,43.0,39.4,30.13,SE,132,11.0,15.0,87,0.00,,,0.00,meteohub,2013-01-27 09:04:00,
2013-01-27 03:09:00,43.0,39.4,30.13,ESE,109,11.0,18.0,87,0.00,,,0.00,meteohub,2013-01-27 09:09:00,
2013-01-27 03:14:00,43.0,39.4,30.13,SE,137,8.0,18.0,87,0.00,,,0.00,meteohub,2013-01-27 09:14:00,
2013-01-27 03:19:00,43.0,39.7,30.12,SSE,150,7.0,18.0,88,0.00,,,0.00,meteohub,2013-01-27 09:19:00,
2013-01-27 03:24:00,42.8,39.6,30.11,SE,127,10.0,15.0,88,0.00,,,0.00,meteohub,2013-01-27 09:24:00,
2013-01-27 03:29:00,42.8,39.7,30.11,SE,134,11.0,17.0,89,0.00,,,0.00,meteohub,2013-01-27 09:29:00,
2013-01-27 03:34:00,42.8,39.7,30.11,ESE,105,11.0,17.0,89,0.00,,,0.00,meteohub,2013-01-27 09:34:00,
2013-01-27 03:39:00,42.8,39.7,30.11,SE,138,11.0,17.0,89,0.00,,,0.00,meteohub,2013-01-27 09:39:00,
2013-01-27 03:45:00,42.6,39.9,30.10,SSE,160,9.0,16.0,90,0.00,,,0.00,meteohub,2013-01-27 09:45:00,
2013-01-27 03:50:00,42.6,39.9,30.11,SSE,149,6.0,16.0,90,0.00,,,0.00,meteohub,2013-01-27 09:50:00,
2013-01-27 03:55:00,42.6,40.1,30.10,SE,146,6.0,16.0,91,0.00,,,0.00,meteohub,2013-01-27 09:55:00,
2013-01-27 04:00:00,42.8,40.3,30.10,SSE,160,6.0,14.0,91,0.00,,,0.00,meteohub,2013-01-27 10:00:00,
2013-01-27 04:05:00,42.8,40.6,30.10,SE,139,7.0,15.0,92,0.00,,,0.00,meteohub,2013-01-27 10:05:00,
2013-01-27 04:10:00,42.8,40.6,30.11,SSE,149,10.0,15.0,92,0.00,,,0.00,meteohub,2013-01-27 10:10:00,
2013-01-27 04:15:00,43.0,41.2,30.10,SSE,149,14.0,17.0,93,0.00,,,0.00,meteohub,2013-01-27 10:15:00,
2013-01-27 04:20:00,43.0,41.2,30.09,SE,131,6.0,17.0,93,0.00,,,0.00,meteohub,2013-01-27 10:20:00,
2013-01-27 04:25:00,43.2,41.5,30.08,SE,134,7.0,17.0,94,0.00,,,0.00,meteohub,2013-01-27 10:25:00,
2013-01-27 04:30:00,43.2,41.5,30.07,SSE,165,9.0,16.0,94,0.00,,,0.00,meteohub,2013-01-27 10:30:00,
2013-01-27 04:35:00,43.2,41.5,30.08,SE,132,7.0,19.0,94,0.00,,,0.00,meteohub,2013-01-27 10:35:00,
2013-01-27 04:40:00,43.2,41.5,30.07,SE,130,12.0,23.0,94,0.00,,,0.00,meteohub,2013-01-27 10:40:00,
2013-01-27 04:45:00,43.0,41.4,30.06,ESE,118,17.0,23.0,94,0.00,,,0.00,meteohub,2013-01-27 10:45:00,
2013-01-27 04:50:00,43.0,41.7,30.06,ESE,122,13.0,23.0,95,0.00,,,0.00,meteohub,2013-01-27 10:50:00,
2013-01-27 04:55:00,43.0,41.7,30.06,SSE,153,13.0,18.0,95,0.00,,,0.00,meteohub,2013-01-27 10:55:00,
2013-01-27 05:00:00,43.0,41.7,30.06,SE,136,9.0,18.0,95,0.00,,,0.00,meteohub,2013-01-27 11:00:00,
2013-01-27 05:05:00,43.0,41.7,30.07,SE,135,5.0,20.0,95,0.00,,,0.00,meteohub,2013-01-27 11:05:00,
2013-01-27 05:10:00,43.0,41.7,30.06,SSE,153,13.0,20.0,95,0.00,,,0.00,meteohub,2013-01-27 11:10:00,
2013-01-27 05:15:00,43.2,41.9,30.06,SE,131,13.0,18.0,95,0.00,,,0.00,meteohub,2013-01-27 11:15:00,
2013-01-27 05:20:00,43.2,42.1,30.05,South,176,18.0,18.0,96,0.00,,,0.00,meteohub,2013-01-27 11:20:00,
2013-01-27 05:25:00,43.3,42.3,30.05,SSE,149,15.0,19.0,96,0.00,,,0.00,meteohub,2013-01-27 11:25:00,
2013-01-27 05:30:00,43.5,42.4,30.05,SSE,167,13.0,19.0,96,0.00,,,0.00,meteohub,2013-01-27 11:30:00,
2013-01-27 05:35:00,43.7,42.6,30.04,SSE,147,14.0,21.0,96,0.00,,,0.00,meteohub,2013-01-27 11:35:00,
2013-01-27 05:40:00,43.9,42.8,30.04,SE,135,8.0,21.0,96,0.00,,,0.00,meteohub,2013-01-27 11:40:00,
2013-01-27 05:45:00,43.9,42.8,30.04,South,172,10.0,22.0,96,0.00,,,0.00,meteohub,2013-01-27 11:45:00,
2013-01-27 05:50:00,43.9,42.8,30.04,SSE,147,9.0,23.0,96,0.00,,,0.00,meteohub,2013-01-27 11:50:00,
2013-01-27 05:55:00,43.9,42.8,30.04,SE,144,7.0,23.0,96,0.00,,,0.00,meteohub,2013-01-27 11:55:00,
2013-01-27 06:00:00,43.9,42.8,30.04,SSE,155,16.0,23.0,96,0.00,,,0.00,meteohub,2013-01-27 12:00:00,
2013-01-27 06:05:00,43.9,42.8,30.04,South,186,7.0,23.0,96,0.00,,,0.00,meteohub,2013-01-27 12:05:00,
2013-01-27 06:10:00,43.9,42.8,30.05,SSE,163,6.0,19.0,96,0.00,,,0.00,meteohub,2013-01-27 12:10:00,
2013-01-27 06:15:00,44.1,43.0,30.04,South,180,8.0,19.0,96,0.00,,,0.00,meteohub,2013-01-27 12:15:00,
2013-01-27 06:20:00,44.2,43.2,30.04,South,170,8.0,18.0,96,0.00,,,0.00,meteohub,2013-01-27 12:20:00,
2013-01-27 06:25:00,44.4,43.7,30.04,SE,144,14.0,18.0,97,0.00,,,0.00,meteohub,2013-01-27 12:25:00,
2013-01-27 06:30:00,44.8,44.1,30.04,SE,140,13.0,20.0,97,0.00,,,0.00,meteohub,2013-01-27 12:30:00,
2013-01-27 06:35:00,44.8,44.1,30.04,SE,127,15.0,21.0,97,0.00,,,0.00,meteohub,2013-01-27 12:35:00,
2013-01-27 06:40:00,45.0,44.2,30.04,SSE,158,10.0,21.0,97,0.00,,,0.00,meteohub,2013-01-27 12:40:00,
2013-01-27 06:45:00,45.0,44.2,30.03,SSE,155,18.0,22.0,97,0.00,,,0.00,meteohub,2013-01-27 12:45:00,
2013-01-27 06:50:00,45.0,44.2,30.03,SW,218,11.0,22.0,97,0.00,,,0.00,meteohub,2013-01-27 12:50:00,
2013-01-27 06:55:00,45.0,44.2,30.03,South,170,17.0,24.0,97,0.00,,,0.00,meteohub,2013-01-27 12:55:00,
2013-01-27 07:00:00,45.0,44.2,30.03,SW,217,7.0,23.0,97,0.00,,,0.00,meteohub,2013-01-27 13:00:00,
2013-01-27 07:05:00,45.1,44.4,30.03,SSW,212,9.0,22.0,97,0.00,,,0.00,meteohub,2013-01-27 13:05:00,
2013-01-27 07:10:00,45.1,44.4,30.03,SSW,198,14.0,22.0,97,0.00,,,0.00,meteohub,2013-01-27 13:10:00,
2013-01-27 07:15:00,45.3,44.6,30.03,SSE,150,10.0,21.0,97,0.00,,,0.00,meteohub,2013-01-27 13:15:00,
2013-01-27 07:20:00,45.3,44.6,30.02,SE,140,7.0,24.0,97,0.00,,,0.00,meteohub,2013-01-27 13:20:00,
2013-01-27 07:25:00,45.5,44.8,30.02,SSW,200,4.0,24.0,97,0.00,,,0.00,meteohub,2013-01-27 13:25:00,
2013-01-27 07:30:00,45.7,45.0,30.02,SSW,192,11.0,22.0,97,0.00,,,0.00,meteohub,2013-01-27 13:30:00,
2013-01-27 07:36:00,45.7,45.0,30.02,South,177,5.0,20.0,97,0.00,,,0.00,meteohub,2013-01-27 13:36:00,
2013-01-27 07:41:00,45.9,45.1,30.02,SSE,161,18.0,22.0,97,0.00,,,0.00,meteohub,2013-01-27 13:41:00,
2013-01-27 07:46:00,45.9,45.1,30.01,South,176,14.0,22.0,97,0.00,,,0.00,meteohub,2013-01-27 13:46:00,
2013-01-27 07:51:00,46.0,45.3,30.02,SSE,150,23.0,23.0,97,0.00,,,0.00,meteohub,2013-01-27 13:51:00,
2013-01-27 07:56:00,46.2,45.5,30.02,SW,217,8.0,23.0,97,0.00,,,0.00,meteohub,2013-01-27 13:56:00,
2013-01-27 08:01:00,46.2,45.5,30.02,SSE,149,14.0,28.0,97,0.00,,,0.00,meteohub,2013-01-27 14:01:00,
2013-01-27 08:06:00,46.4,45.7,30.01,SSE,147,13.0,28.0,97,0.00,,,0.00,meteohub,2013-01-27 14:06:00,
2013-01-27 08:11:00,46.4,45.7,30.01,SSE,163,10.0,23.0,97,0.00,,,0.00,meteohub,2013-01-27 14:11:00,
2013-01-27 08:16:00,46.6,45.9,30.01,South,186,14.0,24.0,97,0.00,,,0.00,meteohub,2013-01-27 14:16:00,
2013-01-27 08:21:00,46.6,45.9,30.01,SSE,153,13.0,24.0,97,0.00,,,0.00,meteohub,2013-01-27 14:21:00,
2013-01-27 08:26:00,46.6,45.9,30.01,South,174,13.0,24.0,97,0.00,,,0.00,meteohub,2013-01-27 14:26:00,
2013-01-27 08:31:00,46.8,46.0,30.01,SSE,149,13.0,22.0,97,0.00,,,0.00,meteohub,2013-01-27 14:31:00,
2013-01-27 08:36:00,46.8,46.0,30.01,SSW,205,7.0,21.0,97,0.00,,,0.00,meteohub,2013-01-27 14:36:00,
2013-01-27 08:41:00,46.9,46.2,30.01,SSW,203,8.0,21.0,97,0.00,,,0.00,meteohub,2013-01-27 14:41:00,
2013-01-27 08:46:00,46.9,46.2,30.01,SSE,156,6.0,22.0,97,0.00,,,0.00,meteohub,2013-01-27 14:46:00,
2013-01-27 08:51:00,47.1,46.4,30.01,SSW,197,13.0,22.0,97,0.00,,,0.00,meteohub,2013-01-27 14:51:00,
2013-01-27 08:56:00,47.1,46.4,30.01,SE,135,15.0,22.0,97,0.00,,,0.00,meteohub,2013-01-27 14:56:00,
2013-01-27 09:01:00,47.1,46.4,30.00,SSE,160,8.0,25.0,97,0.00,,,0.00,meteohub,2013-01-27 15:01:00,
2013-01-27 09:06:00,47.3,46.6,30.00,SW,214,9.0,25.0,97,0.00,,,0.00,meteohub,2013-01-27 15:06:00,
2013-01-27 09:11:00,47.5,46.8,30.00,SE,129,14.0,25.0,97,0.00,,,0.00,meteohub,2013-01-27 15:11:00,
2013-01-27 09:16:00,47.5,46.8,30.01,SW,214,10.0,22.0,97,0.00,,,0.00,meteohub,2013-01-27 15:16:00,
2013-01-27 09:21:00,47.7,46.9,30.01,SSW,193,10.0,22.0,97,0.00,,,0.00,meteohub,2013-01-27 15:21:00,
2013-01-27 09:26:00,47.7,46.9,30.01,SW,214,5.0,22.0,97,0.00,,,0.00,meteohub,2013-01-27 15:26:00,
2013-01-27 09:31:00,47.7,46.9,30.01,SW,217,9.0,18.0,97,0.00,,,0.00,meteohub,2013-01-27 15:31:00,
2013-01-27 09:36:00,47.8,46.9,30.01,SSE,150,4.0,18.0,97,0.00,,,0.00,meteohub,2013-01-27 15:36:00,
2013-01-27 09:41:00,48.0,47.1,30.01,SE,145,9.0,24.0,97,0.00,,,0.00,meteohub,2013-01-27 15:41:00,
2013-01-27 09:46:00,48.0,47.1,30.01,SE,129,6.0,24.0,97,0.00,,,0.00,meteohub,2013-01-27 15:46:00,
2013-01-27 09:51:00,48.0,47.1,30.01,SSW,197,11.0,20.0,97,0.00,,,0.00,meteohub,2013-01-27 15:51:00,
2013-01-27 09:56:00,48.4,47.8,30.00,SSE,167,14.0,19.0,98,0.00,,,0.00,meteohub,2013-01-27 15:56:00,
2013-01-27 10:01:00,48.6,48.0,30.00,SW,220,13.0,19.0,98,0.00,,,0.00,meteohub,2013-01-27 16:01:00,
2013-01-27 10:06:00,48.9,48.4,30.00,South,185,8.0,20.0,98,0.00,,,0.00,meteohub,2013-01-27 16:06:00,
2013-01-27 10:11:00,49.1,48.6,30.01,SSW,204,9.0,21.0,98,0.00,,,0.00,meteohub,2013-01-27 16:11:00,
2013-01-27 10:16:00,49.3,48.7,30.01,South,173,15.0,21.0,98,0.00,,,0.00,meteohub,2013-01-27 16:16:00,
2013-01-27 10:21:00,49.3,48.7,30.00,South,179,12.0,25.0,98,0.00,,,0.00,meteohub,2013-01-27 16:21:00,
2013-01-27 10:26:00,49.5,48.9,30.01,SSW,208,13.0,25.0,98,0.00,,,0.00,meteohub,2013-01-27 16:26:00,
2013-01-27 10:31:00,49.6,49.1,30.00,South,174,19.0,25.0,98,0.00,,,0.00,meteohub,2013-01-27 16:31:00,
2013-01-27 10:36:00,49.6,49.1,30.00,SW,221,8.0,21.0,98,0.00,,,0.00,meteohub,2013-01-27 16:36:00,
2013-01-27 10:41:00,49.6,49.1,30.01,SW,231,13.0,21.0,98,0.00,,,0.00,meteohub,2013-01-27 16:41:00,
2013-01-27 10:46:00,49.8,49.3,30.01,South,173,18.0,23.0,98,0.00,,,0.00,meteohub,2013-01-27 16:46:00,
2013-01-27 10:51:00,50.0,49.1,30.01,SW,228,13.0,23.0,97,0.00,,,0.00,meteohub,2013-01-27 16:51:00,
2013-01-27 10:56:00,50.2,49.3,30.01,SSW,211,8.0,23.0,97,0.00,,,0.00,meteohub,2013-01-27 16:56:00,
2013-01-27 11:01:00,50.2,49.3,30.01,SSW,200,8.0,22.0,97,0.00,,,0.00,meteohub,2013-01-27 17:01:00,
2013-01-27 11:06:00,50.4,49.5,30.00,SW,221,9.0,19.0,97,0.00,,,0.00,meteohub,2013-01-27 17:06:00,
2013-01-27 11:11:00,50.5,49.6,30.00,SSE,160,10.0,21.0,97,0.00,,,0.00,meteohub,2013-01-27 17:11:00,
2013-01-27 11:16:00,50.7,49.8,29.99,SSW,193,9.0,21.0,97,0.00,,,0.00,meteohub,2013-01-27 17:16:00,
2013-01-27 11:21:00,50.9,50.0,29.99,SW,233,16.0,25.0,97,0.00,,,0.00,meteohub,2013-01-27 17:21:00,
2013-01-27 11:26:00,51.1,50.2,29.99,SSW,210,11.0,25.0,97,0.00,,,0.00,meteohub,2013-01-27 17:26:00,
2013-01-27 11:31:00,51.3,50.4,29.99,South,177,7.0,23.0,97,0.00,,,0.00,meteohub,2013-01-27 17:31:00,
2013-01-27 11:36:00,51.4,50.5,29.98,South,188,8.0,23.0,97,0.00,,,0.00,meteohub,2013-01-27 17:36:00,
2013-01-27 11:41:00,51.4,50.4,29.99,SW,214,11.0,23.0,96,0.00,,,0.00,meteohub,2013-01-27 17:41:00,
2013-01-27 11:46:00,51.6,50.5,29.98,SSW,203,7.0,22.0,96,0.00,,,0.00,meteohub,2013-01-27 17:46:00,
2013-01-27 11:51:00,52.0,50.9,29.98,South,183,4.0,21.0,96,0.00,,,0.00,meteohub,2013-01-27 17:51:00,
2013-01-27 11:56:00,52.2,51.1,29.98,SW,226,13.0,21.0,96,0.00,,,0.00,meteohub,2013-01-27 17:56:00,
2013-01-27 12:01:00,52.2,51.1,29.98,SW,218,18.0,22.0,96,0.00,,,0.00,meteohub,2013-01-27 18:01:00,
2013-01-27 12:06:00,52.3,51.3,29.97,SW,236,18.0,22.0,96,0.00,,,0.00,meteohub,2013-01-27 18:06:00,
2013-01-27 12:11:00,52.5,51.1,29.97,SSW,198,16.0,24.0,95,0.00,,,0.00,meteohub,2013-01-27 18:11:00,
2013-01-27 12:16:00,52.7,51.3,29.96,SW,221,11.0,24.0,95,0.00,,,0.00,meteohub,2013-01-27 18:16:00,
2013-01-27 12:21:00,52.9,51.4,29.96,WSW,238,10.0,24.0,95,0.00,,,0.00,meteohub,2013-01-27 18:21:00,
2013-01-27 12:26:00,53.1,51.6,29.96,SW,219,23.0,25.0,95,0.00,,,0.00,meteohub,2013-01-27 18:26:00,
2013-01-27 12:31:00,53.2,51.6,29.96,SW,224,11.0,25.0,94,0.00,,,0.00,meteohub,2013-01-27 18:31:00,
2013-01-27 12:37:00,53.4,51.8,29.95,SW,219,12.0,25.0,94,0.00,,,0.00,meteohub,2013-01-27 18:37:00,
2013-01-27 12:42:00,53.8,52.2,29.95,SW,217,13.0,25.0,94,0.00,,,0.00,meteohub,2013-01-27 18:42:00,
2013-01-27 12:47:00,54.0,52.3,29.95,SW,229,11.0,25.0,94,0.00,,,0.00,meteohub,2013-01-27 18:47:00,
2013-01-27 12:52:00,54.1,52.2,29.95,SW,217,12.0,25.0,93,0.00,,,0.00,meteohub,2013-01-27 18:52:00,
2013-01-27 12:57:00,54.3,52.3,29.94,South,181,11.0,23.0,93,0.00,,,0.00,meteohub,2013-01-27 18:57:00,
2013-01-27 13:02:00,54.7,52.7,29.94,SSW,205,11.0,23.0,93,0.00,,,0.00,meteohub,2013-01-27 19:02:00,
2013-01-27 13:07:00,54.9,52.5,29.94,WSW,239,7.0,23.0,92,0.00,,,0.00,meteohub,2013-01-27 19:07:00,
2013-01-27 13:12:00,55.0,52.7,29.93,SSE,162,13.0,23.0,92,0.00,,,0.00,meteohub,2013-01-27 19:12:00,
2013-01-27 13:17:00,55.2,52.9,29.93,SW,224,20.0,23.0,92,0.00,,,0.00,meteohub,2013-01-27 19:17:00,
2013-01-27 13:22:00,55.6,53.1,29.92,SSW,203,9.0,23.0,91,0.00,,,0.00,meteohub,2013-01-27 19:22:00,
2013-01-27 13:27:00,55.9,53.4,29.92,SW,214,10.0,21.0,91,0.00,,,0.00,meteohub,2013-01-27 19:27:00,
2013-01-27 13:32:00,56.1,53.2,29.91,SSE,162,16.0,21.0,90,0.00,,,0.00,meteohub,2013-01-27 19:32:00,
2013-01-27 13:37:00,56.8,54.0,29.91,SW,221,12.0,24.0,90,0.00,,,0.00,meteohub,2013-01-27 19:37:00,
2013-01-27 13:42:00,57.6,54.0,29.91,SW,218,7.0,24.0,88,0.00,,,0.00,meteohub,2013-01-27 19:42:00,
2013-01-27 13:47:00,58.3,54.5,29.91,SSE,167,9.0,24.0,87,0.00,,,0.00,meteohub,2013-01-27 19:47:00,
2013-01-27 13:52:00,58.8,54.7,29.90,SSW,207,10.0,20.0,86,0.00,,,0.00,meteohub,2013-01-27 19:52:00,
2013-01-27 13:57:00,59.2,54.7,29.90,South,176,9.0,22.0,85,0.00,,,0.00,meteohub,2013-01-27 19:57:00,
2013-01-27 14:02:00,59.5,54.7,29.90,SSW,195,10.0,22.0,84,0.00,,,0.00,meteohub,2013-01-27 20:02:00,
2013-01-27 14:07:00,59.5,54.7,29.90,SSW,201,11.0,21.0,84,0.00,,,0.00,meteohub,2013-01-27 20:07:00,
2013-01-27 14:12:00,59.5,54.7,29.89,SSE,167,10.0,22.0,84,0.00,,,0.00,meteohub,2013-01-27 20:12:00,
2013-01-27 14:17:00,60.1,55.2,29.89,SW,217,11.0,22.0,84,0.00,,,0.00,meteohub,2013-01-27 20:17:00,
2013-01-27 14:22:00,61.0,55.4,29.90,SW,217,17.0,22.0,82,0.00,,,0.00,meteohub,2013-01-27 20:22:00,
2013-01-27 14:27:00,61.9,55.6,29.89,South,180,11.0,21.0,80,0.00,,,0.00,meteohub,2013-01-27 20:27:00,
2013-01-27 14:32:00,62.4,55.8,29.89,SSW,200,8.0,21.0,79,0.00,,,0.00,meteohub,2013-01-27 20:32:00,
2013-01-27 14:37:00,63.1,55.8,29.89,SSE,167,11.0,21.0,77,0.00,,,0.00,meteohub,2013-01-27 20:37:00,
2013-01-27 14:42:00,63.3,55.6,29.89,SSE,164,10.0,18.0,76,0.00,,,0.00,meteohub,2013-01-27 20:42:00,
2013-01-27 14:47:00,64.2,55.8,29.89,SSE,160,11.0,18.0,74,0.00,,,0.00,meteohub,2013-01-27 20:47:00,
2013-01-27 14:52:00,64.6,55.8,29.88,SSW,203,9.0,23.0,73,0.00,,,0.00,meteohub,2013-01-27 20:52:00,
2013-01-27 14:57:00,64.9,55.8,29.88,SW,224,18.0,24.0,72,0.00,,,0.00,meteohub,2013-01-27 20:57:00,
2013-01-27 15:02:00,64.9,55.4,29.88,SSW,200,7.0,24.0,71,0.00,,,0.00,meteohub,2013-01-27 21:02:00,
2013-01-27 15:07:00,65.5,55.4,29.88,SSW,207,13.0,24.0,70,0.00,,,0.00,meteohub,2013-01-27 21:07:00,
2013-01-27 15:12:00,65.8,55.4,29.88,SSW,203,15.0,23.0,69,0.00,,,0.00,meteohub,2013-01-27 21:12:00,
2013-01-27 15:17:00,66.4,55.0,29.88,SSW,201,7.0,23.0,67,0.00,,,0.00,meteohub,2013-01-27 21:17:00,
2013-01-27 15:22:00,66.7,54.7,29.88,SW,218,19.0,23.0,65,0.00,,,0.00,meteohub,2013-01-27 21:22:00,
2013-01-27 15:27:00,66.9,54.9,29.88,SSW,211,19.0,31.0,65,0.00,,,0.00,meteohub,2013-01-27 21:27:00,
2013-01-27 15:32:00,66.9,54.9,29.89,SSW,208,15.0,31.0,65,0.00,,,0.00,meteohub,2013-01-27 21:32:00,
2013-01-27 15:37:00,66.9,55.2,29.88,SSW,195,13.0,31.0,66,0.00,,,0.00,meteohub,2013-01-27 21:37:00,
2013-01-27 15:42:00,66.9,54.9,29.88,SW,224,20.0,29.0,65,0.00,,,0.00,meteohub,2013-01-27 21:42:00,
2013-01-27 15:47:00,67.1,54.5,29.88,SW,233,16.0,27.0,64,0.00,,,0.00,meteohub,2013-01-27 21:47:00,
2013-01-27 15:52:00,67.3,54.7,29.88,South,185,17.0,28.0,64,0.00,,,0.00,meteohub,2013-01-27 21:52:00,
2013-01-27 15:57:00,66.9,54.9,29.88,SW,222,15.0,30.0,65,0.00,,,0.00,meteohub,2013-01-27 21:57:00,
2013-01-27 16:02:00,66.9,54.9,29.88,South,190,13.0,30.0,65,0.00,,,0.00,meteohub,2013-01-27 22:02:00,
2013-01-27 16:07:00,67.1,54.5,29.88,South,188,10.0,30.0,64,0.00,,,0.00,meteohub,2013-01-27 22:07:00,
2013-01-27 16:12:00,67.1,54.5,29.88,SSW,204,12.0,25.0,64,0.00,,,0.00,meteohub,2013-01-27 22:12:00,
2013-01-27 16:17:00,66.9,54.3,29.88,SSW,197,17.0,25.0,64,0.00,,,0.00,meteohub,2013-01-27 22:17:00,
2013-01-27 16:22:00,66.9,54.3,29.88,SW,222,7.0,25.0,64,0.00,,,0.00,meteohub,2013-01-27 22:22:00,
2013-01-27 16:27:00,66.6,54.0,29.88,SW,217,15.0,24.0,64,0.00,,,0.00,meteohub,2013-01-27 22:27:00,
2013-01-27 16:32:00,66.6,54.5,29.88,SSE,159,16.0,24.0,65,0.00,,,0.00,meteohub,2013-01-27 22:32:00,
2013-01-27 16:37:00,66.6,54.5,29.88,SSW,208,21.0,25.0,65,0.00,,,0.00,meteohub,2013-01-27 22:37:00,
2013-01-27 16:42:00,66.6,54.5,29.89,SSW,198,10.0,25.0,65,0.00,,,0.00,meteohub,2013-01-27 22:42:00,
2013-01-27 16:47:00,66.6,54.5,29.88,South,170,10.0,25.0,65,0.00,,,0.00,meteohub,2013-01-27 22:47:00,
2013-01-27 16:52:00,66.4,54.7,29.89,SW,221,22.0,27.0,66,0.00,,,0.00,meteohub,2013-01-27 22:52:00,
2013-01-27 16:57:00,66.0,54.3,29.89,SSW,208,15.0,27.0,66,0.00,,,0.00,meteohub,2013-01-27 22:57:00,
2013-01-27 17:02:00,66.0,54.3,29.89,SSW,200,18.0,29.0,66,0.00,,,0.00,meteohub,2013-01-27 23:02:00,
2013-01-27 17:07:00,66.0,54.3,29.89,SW,231,11.0,29.0,66,0.00,,,0.00,meteohub,2013-01-27 23:07:00,
2013-01-27 17:12:00,65.8,54.1,29.89,SSW,199,18.0,29.0,66,0.00,,,0.00,meteohub,2013-01-27 23:12:00,
2013-01-27 17:17:00,65.7,54.3,29.89,SSW,207,9.0,25.0,67,0.00,,,0.00,meteohub,2013-01-27 23:17:00,
2013-01-27 17:22:00,65.5,54.3,29.89,SW,215,10.0,26.0,67,0.00,,,0.00,meteohub,2013-01-27 23:22:00,
2013-01-27 17:27:00,65.1,54.3,29.89,South,174,10.0,26.0,68,0.00,,,0.00,meteohub,2013-01-27 23:27:00,
2013-01-27 17:32:00,64.8,54.3,29.89,SSW,212,7.0,26.0,69,0.00,,,0.00,meteohub,2013-01-27 23:32:00,
2013-01-27 17:37:00,64.6,54.1,29.89,SSE,158,10.0,21.0,69,0.00,,,0.00,meteohub,2013-01-27 23:37:00,
2013-01-27 17:42:00,64.0,54.1,29.89,SW,224,15.0,23.0,70,0.00,,,0.00,meteohub,2013-01-27 23:42:00,
2013-01-27 17:47:00,63.9,54.3,29.89,SSE,164,14.0,23.0,71,0.00,,,0.00,meteohub,2013-01-27 23:47:00,
2013-01-27 17:52:00,63.7,54.1,29.89,South,180,7.0,23.0,71,0.00,,,0.00,meteohub,2013-01-27 23:52:00,
2013-01-27 17:57:00,63.3,54.1,29.89,SSE,158,14.0,19.0,72,0.00,,,0.00,meteohub,2013-01-27 23:57:00,
2013-01-27 18:02:00,63.3,54.1,29.90,SE,131,13.0,19.0,72,0.00,,,0.00,meteohub,2013-01-28 00:02:00,
2013-01-27 18:07:00,63.0,54.1,29.90,SE,143,12.0,19.0,73,0.00,,,0.00,meteohub,2013-01-28 00:07:00,
2013-01-27 18:13:00,63.0,54.1,29.90,SSE,149,10.0,19.0,73,0.00,,,0.00,meteohub,2013-01-28 00:13:00,
2013-01-27 18:17:00,62.8,54.0,29.90,SSE,161,10.0,18.0,73,0.00,,,0.00,meteohub,2013-01-28 00:17:00,
2013-01-27 18:23:00,62.8,54.0,29.90,South,190,11.0,18.0,73,0.00,,,0.00,meteohub,2013-01-28 00:23:00,
2013-01-27 18:28:00,62.4,54.0,29.90,SSE,155,13.0,18.0,74,0.00,,,0.00,meteohub,2013-01-28 00:28:00,
2013-01-27 18:33:00,62.2,53.8,29.91,South,190,14.0,19.0,74,0.00,,,0.00,meteohub,2013-01-28 00:33:00,
2013-01-27 18:38:00,62.2,53.8,29.90,SSW,198,12.0,19.0,74,0.00,,,0.00,meteohub,2013-01-28 00:38:00,
2013-01-27 18:43:00,62.1,54.0,29.90,SSW,203,10.0,17.0,75,0.00,,,0.00,meteohub,2013-01-28 00:43:00,
2013-01-27 18:48:00,62.1,54.0,29.90,SSE,159,10.0,23.0,75,0.00,,,0.00,meteohub,2013-01-28 00:48:00,
2013-01-27 18:53:00,62.1,54.0,29.90,SSE,163,15.0,23.0,75,0.00,,,0.00,meteohub,2013-01-28 00:53:00,
2013-01-27 18:58:00,61.9,53.8,29.90,SSW,212,8.0,23.0,75,0.00,,,0.00,meteohub,2013-01-28 00:58:00,
2013-01-27 19:03:00,61.7,53.8,29.90,South,190,11.0,18.0,75,0.00,,,0.00,meteohub,2013-01-28 01:03:00,
2013-01-27 19:08:00,61.5,54.0,29.91,SSE,167,10.0,18.0,76,0.00,,,0.00,meteohub,2013-01-28 01:08:00,
2013-01-27 19:13:00,61.3,53.8,29.91,SE,136,12.0,18.0,76,0.00,,,0.00,meteohub,2013-01-28 01:13:00,
2013-01-27 19:18:00,61.2,53.6,29.91,SSW,198,11.0,17.0,76,0.00,,,0.00,meteohub,2013-01-28 01:18:00,
2013-01-27 19:23:00,61.0,53.8,29.91,SW,228,11.0,16.0,77,0.00,,,0.00,meteohub,2013-01-28 01:23:00,
2013-01-27 19:28:00,61.0,54.1,29.91,SSW,195,9.0,16.0,78,0.00,,,0.00,meteohub,2013-01-28 01:28:00,
2013-01-27 19:33:00,60.8,54.3,29.91,South,190,8.0,19.0,79,0.00,,,0.00,meteohub,2013-01-28 01:33:00,
2013-01-27 19:38:00,60.8,54.3,29.92,SW,225,8.0,19.0,79,0.00,,,0.00,meteohub,2013-01-28 01:38:00,
2013-01-27 19:43:00,60.6,54.1,29.92,SSE,162,9.0,19.0,79,0.00,,,0.00,meteohub,2013-01-28 01:43:00,
2013-01-27 19:48:00,60.6,54.1,29.92,SSW,205,13.0,18.0,79,0.00,,,0.00,meteohub,2013-01-28 01:48:00,
2013-01-27 19:53:00,60.4,54.3,29.92,South,190,11.0,17.0,80,0.00,,,0.00,meteohub,2013-01-28 01:53:00,
2013-01-27 19:58:00,60.3,54.1,29.92,South,176,8.0,17.0,80,0.00,,,0.00,meteohub,2013-01-28 01:58:00,
2013-01-27 20:03:00,60.1,54.3,29.92,SSE,152,8.0,16.0,81,0.00,,,0.00,meteohub,2013-01-28 02:03:00,
2013-01-27 20:08:00,60.1,54.3,29.92,SSE,149,9.0,16.0,81,0.00,,,0.00,meteohub,2013-01-28 02:08:00,
2013-01-27 20:13:00,59.9,54.1,29.92,SSE,155,6.0,15.0,81,0.00,,,0.00,meteohub,2013-01-28 02:13:00,
2013-01-27 20:18:00,59.7,54.1,29.93,South,180,9.0,16.0,82,0.00,,,0.00,meteohub,2013-01-28 02:18:00,
2013-01-27 20:23:00,59.5,54.0,29.93,SSE,158,9.0,16.0,82,0.00,,,0.00,meteohub,2013-01-28 02:23:00,
2013-01-27 20:28:00,59.4,54.1,29.93,SSE,155,7.0,17.0,83,0.00,,,0.00,meteohub,2013-01-28 02:28:00,
2013-01-27 20:33:00,59.2,54.0,29.93,South,190,7.0,17.0,83,0.00,,,0.00,meteohub,2013-01-28 02:33:00,
2013-01-27 20:38:00,59.0,53.8,29.93,South,180,6.0,17.0,83,0.00,,,0.00,meteohub,2013-01-28 02:38:00,
2013-01-27 20:43:00,58.8,54.0,29.94,SW,214,4.0,14.0,84,0.00,,,0.00,meteohub,2013-01-28 02:43:00,
2013-01-27 20:48:00,58.8,54.0,29.94,WSW,240,5.0,14.0,84,0.00,,,0.00,meteohub,2013-01-28 02:48:00,
2013-01-27 20:53:00,58.8,54.0,29.95,WSW,255,7.0,14.0,84,0.00,,,0.00,meteohub,2013-01-28 02:53:00,
2013-01-27 20:58:00,58.6,54.1,29.95,WSW,252,6.0,12.0,85,0.00,,,0.00,meteohub,2013-01-28 02:58:00,
2013-01-27 21:03:00,58.5,54.0,29.95,West,280,2.0,11.0,85,0.00,,,0.00,meteohub,2013-01-28 03:03:00,
2013-01-27 21:08:00,58.3,53.8,29.95,SW,218,4.0,9.0,85,0.00,,,0.00,meteohub,2013-01-28 03:08:00,
2013-01-27 21:13:00,57.9,53.8,29.95,WSW,252,5.0,8.0,86,0.00,,,0.00,meteohub,2013-01-28 03:13:00,
2013-01-27 21:18:00,57.7,53.6,29.95,WSW,244,4.0,6.0,86,0.00,,,0.00,meteohub,2013-01-28 03:18:00,
2013-01-27 21:23:00,57.6,53.4,29.95,WSW,256,6.0,6.0,86,0.00,,,0.00,meteohub,2013-01-28 03:23:00,
2013-01-27 21:28:00,57.4,53.6,29.95,WSW,253,3.0,7.0,87,0.00,,,0.00,meteohub,2013-01-28 03:28:00,
2013-01-27 21:33:00,57.4,53.6,29.95,SW,229,4.0,7.0,87,0.00,,,0.00,meteohub,2013-01-28 03:33:00,
2013-01-27 21:38:00,57.6,53.8,29.95,SW,226,3.0,7.0,87,0.00,,,0.00,meteohub,2013-01-28 03:38:00,
2013-01-27 21:43:00,57.6,53.8,29.96,WSW,243,2.0,8.0,87,0.00,,,0.00,meteohub,2013-01-28 03:43:00,
2013-01-27 21:48:00,57.4,53.6,29.96,WSW,249,3.0,8.0,87,0.00,,,0.00,meteohub,2013-01-28 03:48:00,
2013-01-27 21:54:00,57.2,53.6,29.95,SW,233,4.0,7.0,88,0.00,,,0.00,meteohub,2013-01-28 03:54:00,
2013-01-27 21:59:00,57.0,53.4,29.95,SW,226,5.0,7.0,88,0.00,,,0.00,meteohub,2013-01-28 03:59:00,
2013-01-27 22:04:00,57.0,53.8,29.95,SW,225,6.0,8.0,89,0.00,,,0.00,meteohub,2013-01-28 04:04:00,
2013-01-27 22:09:00,57.2,54.0,29.95,SSW,201,5.0,8.0,89,0.00,,,0.00,meteohub,2013-01-28 04:09:00,
2013-01-27 22:14:00,57.2,54.0,29.95,SSW,201,4.0,10.0,89,0.00,,,0.00,meteohub,2013-01-28 04:14:00,
2013-01-27 22:19:00,57.2,54.0,29.96,WSW,252,2.0,10.0,89,0.00,,,0.00,meteohub,2013-01-28 04:19:00,
2013-01-27 22:24:00,57.0,53.8,29.96,WNW,282,2.0,10.0,89,0.00,,,0.00,meteohub,2013-01-28 04:24:00,
2013-01-27 22:29:00,56.7,53.4,29.96,WNW,291,3.0,8.0,89,0.00,,,0.00,meteohub,2013-01-28 04:29:00,
2013-01-27 22:34:00,56.3,53.4,29.96,WSW,243,1.0,5.0,90,0.00,,,0.00,meteohub,2013-01-28 04:34:00,
2013-01-27 22:39:00,56.3,53.4,29.96,SSE,155,2.0,3.0,90,0.00,,,0.00,meteohub,2013-01-28 04:39:00,
2013-01-27 22:44:00,56.1,53.2,29.96,SSW,207,1.0,4.0,90,0.00,,,0.00,meteohub,2013-01-28 04:44:00,
2013-01-27 22:49:00,55.8,53.2,29.96,WSW,254,1.0,4.0,91,0.00,,,0.00,meteohub,2013-01-28 04:49:00,
2013-01-27 22:54:00,55.8,53.2,29.96,West,280,1.0,4.0,91,0.00,,,0.00,meteohub,2013-01-28 04:54:00,
2013-01-27 22:59:00,55.8,53.2,29.96,SW,228,2.0,4.0,91,0.00,,,0.00,meteohub,2013-01-28 04:59:00,
2013-01-27 23:00:00,55.8,53.2,29.96,SW,218,1.0,4.0,91,0.00,,,0.00,meteohub,2013-01-28 05:00:00,
2013-01-27 23:02:00,55.8,53.2,29.96,SSW,198,1.0,2.0,91,0.00,,,0.00,meteohub,2013-01-28 05:02:00,
2013-01-27 23:07:00,55.6,53.1,29.96,SE,140,2.0,3.0,91,0.00,,,0.00,meteohub,2013-01-28 05:07:00,
2013-01-27 23:12:00,55.2,52.7,29.96,SE,129,2.0,3.0,91,0.00,,,0.00,meteohub,2013-01-28 05:12:00,
2013-01-27 23:15:00,55.0,52.7,29.96,SE,138,1.0,3.0,92,0.00,,,0.00,meteohub,2013-01-28 05:15:00,
2013-01-27 23:20:00,55.0,52.7,29.96,SSE,165,1.0,3.0,92,0.00,,,0.00,meteohub,2013-01-28 05:20:00,
2013-01-27 23:25:00,55.0,52.7,29.96,South,188,1.0,3.0,92,0.00,,,0.00,meteohub,2013-01-28 05:25:00,
2013-01-27 23:30:00,55.0,53.1,29.96,SE,146,2.0,3.0,93,0.00,,,0.00,meteohub,2013-01-28 05:30:00,
2013-01-27 23:35:00,54.9,52.9,29.95,SE,136,2.0,3.0,93,0.00,,,0.00,meteohub,2013-01-28 05:35:00,
2013-01-27 23:40:00,54.9,52.9,29.96,SE,136,2.0,3.0,93,0.00,,,0.00,meteohub,2013-01-28 05:40:00,
2013-01-27 23:45:00,54.7,52.7,29.96,SSE,149,2.0,3.0,93,0.00,,,0.00,meteohub,2013-01-28 05:45:00,
2013-01-27 23:50:00,54.5,52.5,29.96,SE,142,1.0,3.0,93,0.00,,,0.00,meteohub,2013-01-28 05:50:00,
2013-01-27 23:55:00,54.5,52.5,29.95,SE,145,1.0,3.0,93,0.00,,,0.00,meteohub,2013-01-28 05:55:00,